Latest Weather Observations for Sydney Airport

IDN60801

Issued at 11:05 am EST Friday 29 August 2014 (issued every 30 minutes, with the page automatically refreshed every 10 minutes)

About weather observations | Map of weather stations | Latest weather observations for NSW | Other Formats
Station Details ID: 066037 Name: SYDNEY AIRPORT AMO Lat: -33.95 Lon: 151.17 Height: 6.0 m
Data from the previous 72 hours. | See also: Recent months at Sydney Airport
Date/Time
EST
Temp
°C
App
Temp
°C
Dew
Point
Rel
Hum
%
Delta-T
°C
Wind Press
QNH
hPa
Press
MSL
hPa
Rain
since 9 am
mm
Dir
 
Spd
km/h
Gust
km/h
Spd
kts
Gust
kts
29/11:00am 14.7 9.5 10.3 75 2.3 SW 28 33 15 18 1025.9 1025.9 0.0
29/10:30am 14.1 7.2 10.2 77 2.0 SSW 37 43 20 23 1026.2 - 0.0
29/10:09am 14.7 8.0 9.6 71 2.6 SSW 35 54 19 29 1026.0 - 0.0
29/10:00am 14.6 8.8 9.5 71 2.6 SSW 30 37 16 20 1026.1 1026.1 0.0
29/09:30am 13.7 8.0 9.8 77 2.0 SSW 30 37 16 20 1026.7 - 0.0
29/09:00am 12.8 9.2 9.9 82 1.5 WSW 19 26 10 14 1026.6 1026.6 1.8
29/08:30am 13.4 8.1 9.9 79 1.8 SW 28 35 15 19 1026.6 - 1.4
29/08:00am 12.3 7.3 9.5 83 1.4 SW 26 32 14 17 1026.8 1026.8 1.4
29/07:30am 12.2 8.3 8.8 80 1.7 WSW 19 22 10 12 1026.6 - 1.2
29/07:00am 11.5 7.3 8.4 81 1.5 WSW 20 26 11 14 1026.1 1026.1 1.2
29/06:30am 10.1 6.7 7.6 84 1.2 W 15 19 8 10 1025.9 - 1.2
29/06:00am 10.0 6.2 7.7 86 1.1 WSW 17 28 9 15 1026.0 1026.0 1.2
29/05:30am 10.9 6.9 8.4 84 1.2 WSW 19 22 10 12 1025.7 - 1.2
29/05:00am 11.0 6.4 8.3 83 1.3 SW 22 30 12 16 1025.6 1025.6 1.0
29/04:30am 9.8 4.6 7.3 84 1.2 SW 24 32 13 17 1025.6 - 0.8
29/04:00am 10.3 6.1 7.6 83 1.3 WSW 19 22 10 12 1025.6 1025.6 0.8
29/03:30am 12.5 8.0 8.7 77 1.9 SW 22 28 12 15 1025.7 - 0.8
29/03:00am 12.1 7.5 8.0 76 2.0 WSW 22 26 12 14 1025.8 1025.8 0.8
29/02:30am 12.2 8.1 7.9 75 2.1 WSW 19 26 10 14 1026.0 - 0.8
29/02:00am 12.5 9.0 8.7 77 1.9 SW 17 20 9 11 1026.2 1026.2 0.8
29/01:30am 13.0 8.7 9.4 79 1.8 SW 22 26 12 14 1026.4 - 0.8
29/01:00am 13.0 9.0 9.0 77 2.0 SW 20 26 11 14 1026.9 1026.9 0.8
29/12:30am 13.2 8.0 8.8 74 2.2 SW 26 30 14 16 1027.0 - 0.8
29/12:00am 13.2 8.4 8.8 74 2.2 SW 24 30 13 16 1027.2 1027.2 0.8
 
Date/Time
EST
Temp
°C
App
Temp
°C
Dew
Point
Rel
Hum
%
Delta-T
°C
Wind Press
QNH
hPa
Press
MSL
hPa
Rain
since 9 am
mm
Dir
 
Spd
km/h
Gust
km/h
Spd
kts
Gust
kts
28/11:30pm 12.4 8.3 8.5 77 1.9 SW 20 26 11 14 1027.3 - 0.8
28/11:00pm 12.6 9.1 8.6 76 2.0 WSW 17 24 9 13 1027.3 1027.3 0.8
28/10:30pm 13.0 9.4 8.3 73 2.3 SW 17 19 9 10 1027.4 - 0.8
28/10:00pm 14.0 10.0 8.4 69 2.8 SSW 19 28 10 15 1027.6 1027.6 0.8
28/09:30pm 15.0 9.9 7.7 61 3.6 SSE 24 30 13 16 1027.7 - 0.8
28/09:00pm 15.3 10.7 8.1 62 3.6 S 22 32 12 17 1027.6 1027.6 0.8
28/08:30pm 15.1 10.9 8.1 63 3.5 S 20 30 11 16 1027.6 - 0.8
28/08:00pm 15.3 11.1 8.1 62 3.6 S 20 35 11 19 1027.5 1027.5 0.8
28/07:30pm 15.1 9.3 6.1 55 4.3 SSE 26 32 14 17 1027.4 - 0.8
28/07:00pm 15.6 10.3 6.8 56 4.3 S 24 32 13 17 1027.3 1027.3 0.8
28/06:30pm 15.6 10.1 7.7 59 3.9 S 26 33 14 18 1027.2 - 0.8
28/06:00pm 15.3 9.7 7.1 58 4.0 S 26 33 14 18 1027.0 1027.0 0.8
28/05:30pm 15.6 9.7 7.5 58 4.0 S 28 33 15 18 1026.9 - 0.8
28/05:00pm 15.9 9.9 7.2 56 4.3 S 28 33 15 18 1026.7 1026.7 0.8
28/04:30pm 16.4 9.4 6.0 50 5.0 SSE 32 39 17 21 1026.4 - 0.8
28/04:00pm 16.4 10.0 8.5 59 4.0 S 32 39 17 21 1026.2 1026.2 0.8
28/03:30pm 17.0 10.3 7.4 53 4.8 SSE 32 41 17 22 1026.1 - 0.8
28/03:00pm 16.8 10.2 7.8 55 4.5 S 32 39 17 21 1025.9 1025.9 0.8
28/02:30pm 17.2 11.1 9.7 61 3.9 SSE 32 39 17 21 1025.8 - 0.8
28/02:00pm 17.6 10.8 6.9 49 5.3 SSE 32 41 17 22 1025.7 1025.7 0.8
28/01:30pm 17.3 10.3 8.5 56 4.5 SSE 35 46 19 25 1025.7 - 0.4
28/01:00pm 17.3 10.6 9.6 60 4.0 S 35 43 19 23 1025.6 1025.6 0.4
28/12:30pm 17.3 11.4 10.3 63 3.7 SSE 32 41 17 22 1025.8 - 0.4
28/12:00pm 18.2 11.9 9.8 58 4.4 SSE 33 41 18 22 1026.1 1026.1 0.4
28/11:30am 16.9 11.4 10.7 67 3.3 S 30 35 16 19 1026.4 - 0.4
28/11:00am 15.5 10.2 11.2 75 2.3 SE 30 48 16 26 1026.9 1026.9 0.4
28/10:30am 17.3 11.0 8.9 57 4.3 SSE 32 41 17 22 1026.8 - 0.4
28/10:00am 14.9 12.0 12.3 84 1.4 SSW 19 30 10 16 1026.9 1026.9 0.4
28/09:30am 17.2 11.9 10.0 62 3.8 SSE 28 33 15 18 1026.6 - 0.0
28/09:00am 17.4 11.8 8.8 57 4.4 SSE 28 35 15 19 1026.7 1026.7 13.0
28/08:30am 14.8 10.7 12.8 88 1.1 SSE 26 33 14 18 1026.7 - 13.0
28/08:00am 14.0 9.7 12.1 88 1.0 SW 26 32 14 17 1026.5 1026.5 13.0
28/07:30am 13.7 8.6 11.8 88 1.0 S 30 41 16 22 1026.2 - 12.4
28/07:00am 14.5 9.7 11.5 82 1.6 S 28 33 15 18 1025.8 1025.8 11.8
28/06:30am 13.7 9.1 12.4 92 0.7 S 28 33 15 18 1025.7 - 11.8
28/06:00am 13.7 9.3 11.6 87 1.1 SE 26 46 14 25 1025.5 1025.5 9.4
28/05:30am 13.6 9.5 11.5 87 1.1 SSW 24 32 13 17 1025.0 - 9.2
28/05:00am 13.4 8.6 11.5 88 1.0 S 28 33 15 18 1024.9 1024.9 8.2
28/04:30am 13.6 9.7 12.1 91 0.8 S 24 28 13 15 1024.9 - 7.0
28/04:00am 12.7 6.8 10.6 87 1.1 E 32 39 17 21 1024.8 1024.8 4.6
28/03:47am 13.9 8.5 11.0 83 1.5 SE 30 50 16 27 1024.9 - 3.4
28/03:30am 15.3 9.7 11.4 77 2.1 S 32 39 17 21 1024.5 - 3.4
28/03:00am 15.5 10.1 11.0 74 2.4 S 30 37 16 20 1024.5 1024.5 3.4
28/02:30am 15.4 9.6 10.9 74 2.4 S 32 39 17 21 1024.5 - 3.4
28/02:00am 14.9 9.9 10.9 77 2.1 S 28 35 15 19 1024.8 1024.8 3.4
28/01:30am 14.9 10.8 12.8 87 1.2 S 26 33 14 18 1024.8 - -
28/01:00am 13.9 8.5 12.2 89 0.9 SSE 32 46 17 25 1025.0 1025.0 3.4
28/12:30am 15.4 9.4 10.0 70 2.8 S 32 41 17 22 1025.2 - 2.6
28/12:00am 15.5 9.4 9.9 69 2.9 S 32 39 17 21 1025.3 1025.3 2.6
 
Date/Time
EST
Temp
°C
App
Temp
°C
Dew
Point
Rel
Hum
%
Delta-T
°C
Wind Press
QNH
hPa
Press
MSL
hPa
Rain
since 9 am
mm
Dir
 
Spd
km/h
Gust
km/h
Spd
kts
Gust
kts
27/11:30pm 15.5 9.3 10.1 70 2.8 S 33 43 18 23 1025.4 - 2.6
27/11:00pm 15.4 8.5 8.7 64 3.4 S 35 43 19 23 1025.7 1025.7 2.6
27/10:30pm 15.3 8.3 8.3 63 3.5 S 35 43 19 23 1025.8 - 2.6
27/10:00pm 15.6 9.0 8.7 63 3.5 S 33 39 18 21 1025.7 1025.7 2.6
27/09:30pm 15.2 9.9 10.0 71 2.7 S 28 37 15 20 1025.9 - 2.6
27/09:00pm 15.0 10.2 10.4 74 2.4 SSW 26 33 14 18 1025.9 1025.9 2.6
27/08:30pm 15.8 9.4 8.7 62 3.6 S 32 37 17 20 1025.9 - 2.6
27/08:00pm 15.4 9.1 7.3 58 4.0 S 30 35 16 19 1026.0 1026.0 2.6
27/07:30pm 15.8 8.5 7.0 56 4.3 S 35 44 19 24 1025.8 - 2.6
27/07:00pm 16.0 8.2 6.8 54 4.5 SSE 37 48 20 26 1025.6 1025.6 2.6
27/06:30pm 15.9 7.9 7.6 58 4.1 SSE 39 50 21 27 1025.3 - 2.6
27/06:00pm 16.0 8.0 7.5 57 4.2 SSE 39 50 21 27 1025.2 1025.2 2.6
27/05:30pm 16.2 8.2 7.3 55 4.4 SSE 39 46 21 25 1024.9 - 2.6
27/05:00pm 16.4 9.5 9.0 61 3.8 SSE 35 46 19 25 1024.7 1024.7 2.6
27/04:30pm 16.4 9.0 9.7 64 3.5 SSE 39 48 21 26 1024.4 - 2.6
27/04:00pm 16.7 9.1 9.1 61 3.9 S 39 48 21 26 1024.3 1024.3 2.6
27/03:30pm 16.9 9.4 9.6 62 3.8 SSE 39 46 21 25 1024.1 - 2.6
27/03:00pm 17.2 10.3 10.4 64 3.6 SSE 37 46 20 25 1023.9 1023.9 2.6
27/02:30pm 17.2 10.4 9.3 59 4.1 SSE 35 44 19 24 1024.0 - 2.6
27/02:00pm 16.4 10.7 9.9 65 3.4 SSE 30 41 16 22 1023.8 1023.8 2.6
27/01:30pm 15.9 9.3 11.4 74 2.4 S 37 46 20 25 1023.9 - 2.6
27/01:00pm 14.3 8.1 11.3 82 1.6 SSE 35 46 19 25 1024.2 1024.2 2.2
27/12:46pm 16.3 9.8 11.7 74 2.5 SSE 37 46 20 25 1024.2 - 1.2
27/12:30pm 15.5 10.8 10.8 73 2.5 S 26 37 14 20 1024.3 - 1.2
27/12:00pm 14.8 9.3 12.4 85 1.3 S 33 48 18 26 1024.8 1024.8 1.2
27/11:43am 14.5 8.5 12.1 85 1.3 S 35 52 19 28 1025.3 - 0.6
27/11:30am 16.1 10.0 11.8 75 2.3 S 35 41 19 22 1025.2 - 0.4
27/11:00am 16.1 9.7 10.8 71 2.8 S 35 46 19 25 1025.2 1025.2 0.4
27/10:30am 16.0 9.7 12.3 79 2.0 S 37 48 20 26 1025.6 - 0.4
27/10:00am 16.1 9.4 11.0 72 2.7 S 37 50 20 27 1025.5 1025.5 0.0
27/09:30am 16.2 10.1 11.6 74 2.5 S 35 50 19 27 1025.4 - 0.0
27/09:00am 15.5 9.1 12.0 79 1.9 S 37 50 20 27 1025.1 1025.1 29.0
27/08:30am 15.8 9.6 11.3 74 2.4 S 35 44 19 24 1025.1 - 28.0
27/08:14am 14.9 9.2 11.1 78 2.0 S 32 44 17 24 1025.2 - 28.0
27/08:00am 13.2 9.9 9.4 78 1.9 SE 17 24 9 13 1025.3 1025.3 28.0
27/07:46am 13.2 8.3 10.1 81 1.6 E 26 39 14 21 1025.6 - 26.2
27/07:30am 14.3 8.8 12.5 89 1.0 S 33 37 18 20 1024.7 - 25.4
27/07:00am 14.9 9.2 11.1 78 2.0 S 32 37 17 20 1024.4 1024.4 25.0
27/06:30am 15.4 9.8 11.5 77 2.1 SSE 32 41 17 22 1024.1 - 25.0
27/06:03am 14.5 9.8 11.9 84 1.4 SSE 28 48 15 26 1024.0 - 24.6
27/06:00am 14.7 10.0 11.9 83 1.5 S 28 35 15 19 1023.9 1023.9 24.6
27/05:30am 14.0 8.9 11.9 87 1.1 S 30 37 16 20 1024.0 - 24.2
27/05:00am 14.5 8.2 11.1 80 1.8 S 35 46 19 25 1023.8 1023.8 24.0
27/04:30am 15.1 9.8 12.5 84 1.4 S 32 50 17 27 1023.7 - 24.0
27/04:28am 14.5 9.3 12.7 89 1.0 S 32 39 17 21 1023.7 - 24.0
27/04:00am 14.5 9.2 12.5 88 1.1 S 32 37 17 20 1023.6 1023.6 23.0
27/03:30am 14.6 8.9 13.0 90 0.9 SSE 35 48 19 26 1023.5 - 20.8
27/03:00am 15.5 10.4 12.0 79 1.9 SSE 30 39 16 21 1023.6 1023.6 18.8
27/02:30am 15.6 9.3 8.9 64 3.4 SE 32 39 17 21 1023.7 - 18.8
27/02:00am 15.2 9.5 11.3 77 2.1 SE 32 44 17 24 1023.7 1023.7 18.6
27/01:30am 15.4 10.2 11.5 77 2.1 SSE 30 35 16 19 1023.9 - 18.4
27/01:00am 15.7 9.9 11.4 75 2.3 SE 33 41 18 22 1024.2 1024.2 18.4
27/12:30am 15.7 10.1 10.1 69 2.9 SE 30 35 16 19 1024.4 - 18.4
27/12:00am 15.1 9.4 11.3 78 2.0 ESE 32 41 17 22 1024.6 1024.6 18.4
 
Date/Time
EST
Temp
°C
App
Temp
°C
Dew
Point
Rel
Hum
%
Delta-T
°C
Wind Press
QNH
hPa
Press
MSL
hPa
Rain
since 9 am
mm
Dir
 
Spd
km/h
Gust
km/h
Spd
kts
Gust
kts
26/11:30pm 14.2 10.8 12.5 89 0.9 ENE 22 26 12 14 1024.8 - 18.0
26/11:00pm 14.4 9.0 12.2 87 1.2 ESE 32 54 17 29 1025.0 1025.0 10.0
26/10:30pm 14.6 10.0 12.2 85 1.3 ESE 28 33 15 18 1024.9 - 9.8
26/10:00pm 14.9 9.7 11.7 81 1.7 ESE 30 39 16 21 1025.0 1025.0 9.6
26/09:30pm 14.5 8.3 12.5 88 1.1 ESE 37 56 20 30 1024.7 - 9.6
26/09:17pm 15.4 10.9 12.5 83 1.6 ESE 28 56 15 30 1024.5 - 8.6
26/09:00pm 15.0 9.9 12.0 82 1.6 ESE 30 41 16 22 1024.4 1024.4 8.6
26/08:30pm 15.5 9.0 11.6 77 2.1 ESE 37 52 20 28 1024.4 - 8.4
26/08:00pm 15.0 10.4 12.2 83 1.5 E 28 46 15 25 1024.1 1024.1 8.4
26/07:46pm 15.8 11.1 11.9 77 2.1 ESE 28 46 15 25 1024.0 - 8.2
26/07:30pm 15.6 11.8 12.5 82 1.7 E 24 33 13 18 1023.9 - 8.2
26/07:00pm 15.2 12.3 12.8 85 1.3 SE 20 26 11 14 1023.7 1023.7 8.2
26/06:30pm 15.2 10.7 12.6 84 1.4 ESE 28 33 15 18 1023.6 - 7.6
26/06:00pm 15.2 9.7 11.7 79 1.9 ESE 32 37 17 20 1023.4 1023.4 7.6
26/05:30pm 15.3 11.5 12.4 83 1.6 SE 24 30 13 16 1023.2 - 7.6
26/05:00pm 14.6 11.7 13.0 90 0.9 SSE 20 28 11 15 1023.2 1023.2 7.4
26/04:30pm 14.3 11.0 12.8 91 0.8 S 22 33 12 18 1022.8 - 7.4
26/04:18pm 14.5 8.8 12.9 90 0.9 S 35 41 19 22 1022.6 - 6.6
26/04:00pm 14.8 9.6 12.8 88 1.1 S 32 37 17 20 1022.8 1022.8 6.6
26/03:30pm 14.5 12.2 13.0 91 0.8 SW 17 28 9 15 1022.7 - 6.6
26/03:00pm 14.4 12.8 12.8 90 0.9 SSW 13 17 7 9 1022.7 1022.7 6.2
26/02:30pm 14.5 12.0 13.6 94 0.5 S 19 26 10 14 1022.8 - 6.0
26/02:00pm 15.0 12.3 13.4 90 0.9 S 20 26 11 14 1022.9 1022.9 4.4
26/01:30pm 14.3 11.2 13.4 94 0.5 SSW 22 37 12 20 1023.0 - 4.4
26/01:00pm 13.7 11.4 13.0 96 0.4 SSW 17 24 9 13 1023.4 1023.4 4.2
26/12:30pm 13.6 9.8 12.3 92 0.7 S 24 28 13 15 1023.7 - 3.6
26/12:00pm 14.5 10.7 12.5 88 1.1 S 24 30 13 16 1023.9 1023.9 2.2
26/11:30am 14.6 12.4 12.0 84 1.4 SSW 15 17 8 9 1023.8 - 2.2

Other Formats:

Comma delimited format used in spreadsheet applications
http://www.bom.gov.au/fwo/IDN60801/IDN60801.94767.axf

JavaScript Object Notation format (JSON) in row-major order
http://www.bom.gov.au/fwo/IDN60801/IDN60801.94767.json